createdAt,value
2018-09-26T00:00:21.702Z,32.4
2018-09-26T00:01:11.715Z,32.4
2018-09-26T00:02:01.240Z,32.4
2018-09-26T00:02:51.323Z,32.4
2018-09-26T00:03:41.350Z,32.4
2018-09-26T00:04:31.135Z,32.4
2018-09-26T00:05:21.787Z,32.4
2018-09-26T00:06:11.591Z,32.4
2018-09-26T00:07:02.174Z,32.4
2018-09-26T00:07:52.147Z,32.4
2018-09-26T00:08:41.714Z,32.4
2018-09-26T00:09:32.629Z,32.4
2018-09-26T00:10:21.800Z,32.4
2018-09-26T00:11:11.952Z,32.4
2018-09-26T00:12:02.417Z,32.4
2018-09-26T00:12:51.980Z,32.4
2018-09-26T00:13:42.107Z,32.4
2018-09-26T00:14:32.407Z,32.4
2018-09-26T00:15:23.065Z,32.3
2018-09-26T00:16:12.596Z,32.3
2018-09-26T00:17:02.043Z,32.3
2018-09-26T00:17:52.631Z,32.3
2018-09-26T00:18:42.555Z,32.3
2018-09-26T00:19:33.361Z,32.3
2018-09-26T00:20:22.299Z,32.3
2018-09-26T00:21:12.972Z,32.3
2018-09-26T00:22:02.723Z,32.3
2018-09-26T00:22:53.066Z,32.3
2018-09-26T00:23:43.324Z,32.3
2018-09-26T00:24:32.618Z,32.3
2018-09-26T00:25:24.073Z,32.3
2018-09-26T00:26:13.051Z,32.3
2018-09-26T00:27:03.616Z,32.3
2018-09-26T00:27:52.841Z,32.3
2018-09-26T00:28:44.061Z,32.2
2018-09-26T00:29:34.380Z,32.2
2018-09-26T00:30:24.158Z,32.3
2018-09-26T00:31:14.228Z,32.2
2018-09-26T00:32:04.021Z,32.2
2018-09-26T00:32:53.501Z,32.2
2018-09-26T00:33:44.126Z,32.2
2018-09-26T00:34:33.953Z,32.2
2018-09-26T00:35:24.268Z,32.2
2018-09-26T00:36:15.547Z,32.1
2018-09-26T00:55:27.334Z,32
2018-09-26T00:56:18.109Z,31.9
2018-09-26T00:57:06.877Z,31.9
2018-09-26T00:57:57.751Z,31.9
2018-09-26T00:58:47.260Z,31.9
2018-09-26T00:59:37.593Z,31.9
2018-09-26T01:00:29.211Z,31.9
2018-09-26T01:01:18.505Z,31.9
2018-09-26T01:02:08.039Z,31.9
2018-09-26T01:02:57.822Z,31.9
2018-09-26T01:03:48.717Z,31.9
2018-09-26T01:04:38.184Z,31.9
2018-09-26T01:05:29.176Z,31.9
2018-09-26T01:06:17.796Z,31.9
2018-09-26T01:07:08.189Z,31.9
2018-09-26T01:07:58.731Z,31.9
2018-09-26T01:08:48.794Z,31.9
2018-09-26T01:09:38.854Z,31.8
2018-09-26T01:10:28.634Z,31.8
2018-09-26T01:11:19.287Z,31.8
2018-09-26T01:12:08.889Z,31.8
2018-09-26T01:12:58.610Z,31.8
2018-09-26T01:13:48.843Z,31.8
2018-09-26T01:14:39.229Z,31.9
2018-09-26T01:15:28.959Z,31.8
2018-09-26T01:16:19.719Z,31.8
2018-09-26T01:17:09.451Z,31.8
2018-09-26T01:17:59.201Z,31.8
2018-09-26T01:18:49.556Z,31.8
2018-09-26T01:19:39.896Z,31.8
2018-09-26T01:20:29.910Z,31.8
2018-09-26T01:21:18.866Z,31.8
2018-09-26T01:22:10.086Z,31.8
2018-09-26T01:22:59.583Z,31.8
2018-09-26T01:23:49.608Z,31.8
2018-09-26T01:24:40.228Z,31.8
2018-09-26T01:25:30.056Z,31.8
2018-09-26T01:26:20.196Z,31.8
2018-09-26T01:27:10.173Z,31.8
2018-09-26T01:27:59.985Z,31.8
2018-09-26T01:28:49.972Z,31.8
2018-09-26T01:29:40.603Z,31.8
2018-09-26T01:30:30.155Z,31.8
2018-09-26T01:31:20.990Z,31.7
2018-09-26T01:32:10.735Z,31.7
2018-09-26T01:32:59.467Z,31.7
2018-09-26T01:33:50.357Z,31.7
2018-09-26T01:34:40.387Z,31.7
2018-09-26T01:35:30.773Z,31.7
2018-09-26T01:36:21.117Z,31.7
2018-09-26T01:37:11.514Z,31.6
2018-09-26T01:38:00.709Z,31.6
2018-09-26T01:38:50.745Z,31.6
2018-09-26T01:39:41.090Z,31.6
2018-09-26T01:40:30.324Z,31.6
2018-09-26T01:41:20.588Z,31.6
2018-09-26T01:42:11.559Z,31.6
2018-09-26T01:43:01.617Z,31.6
2018-09-26T01:43:50.837Z,31.6
2018-09-26T01:44:40.637Z,31.6
2018-09-26T01:45:30.952Z,31.6
2018-09-26T01:46:21.275Z,31.6
2018-09-26T01:47:11.586Z,31.6
2018-09-26T01:48:00.904Z,31.6
2018-09-26T01:48:51.776Z,31.6
2018-09-26T01:49:41.543Z,31.6
2018-09-26T01:50:31.856Z,31.6
2018-09-26T01:51:21.671Z,31.6
2018-09-26T01:52:11.896Z,31.6
2018-09-26T01:53:01.820Z,31.6
2018-09-26T01:53:51.979Z,31.6
2018-09-26T01:54:42.186Z,31.6
2018-09-26T01:55:32.278Z,31.6
2018-09-26T01:56:21.201Z,31.6
2018-09-26T01:57:12.456Z,31.6
2018-09-26T01:58:02.518Z,31.6
2018-09-26T01:58:52.518Z,31.6
2018-09-26T01:59:42.593Z,31.6
2018-09-26T02:00:32.334Z,31.6
2018-09-26T02:01:22.988Z,31.6
2018-09-26T02:02:12.480Z,31.6
2018-09-26T02:03:03.086Z,31.5
2018-09-26T02:03:52.611Z,31.5
2018-09-26T02:04:42.421Z,31.5
2018-09-26T02:05:32.171Z,31.5
2018-09-26T02:06:22.778Z,31.5
2018-09-26T02:07:13.098Z,31.5
2018-09-26T02:08:03.471Z,31.5
2018-09-26T02:08:52.999Z,31.5
2018-09-26T02:09:43.030Z,31.6
2018-09-26T02:10:33.369Z,31.5
2018-09-26T02:11:22.313Z,31.5
2018-09-26T02:12:13.516Z,31.5
2018-09-26T02:13:03.230Z,31.4
2018-09-26T02:13:54.094Z,31.4
2018-09-26T02:14:43.920Z,31.4
2018-09-26T02:15:34.048Z,31.4
2018-09-26T02:16:23.764Z,31.4
2018-09-26T02:17:13.583Z,31.4
2018-09-26T02:18:03.404Z,31.4
2018-09-26T02:18:53.465Z,31.4
2018-09-26T02:19:44.046Z,31.4
2018-09-26T02:20:33.560Z,31.4
2018-09-26T02:21:24.159Z,31.4
2018-09-26T02:22:14.509Z,31.4
2018-09-26T02:23:03.450Z,31.4
2018-09-26T02:23:54.644Z,31.4
2018-09-26T02:24:44.686Z,31.4
2018-09-26T02:25:34.167Z,31.4
2018-09-26T02:26:24.814Z,31.4
2018-09-26T02:27:14.875Z,31.3
2018-09-26T02:28:04.130Z,31.4
2018-09-26T02:28:55.369Z,31.4
2018-09-26T02:29:44.739Z,31.4
2018-09-26T02:30:34.341Z,31.4
2018-09-26T02:31:24.360Z,31.4
2018-09-26T02:32:14.132Z,31.4
2018-09-26T02:33:05.087Z,31.4
2018-09-26T02:33:55.139Z,31.4
2018-09-26T02:34:45.158Z,31.4
2018-09-26T02:35:35.503Z,31.3
2018-09-26T02:36:24.974Z,31.3
2018-09-26T02:37:15.603Z,31.3
2018-09-26T02:38:05.919Z,31.3
2018-09-26T02:38:55.406Z,31.3
2018-09-26T02:39:45.896Z,31.3
2018-09-26T02:40:35.306Z,31.3
2018-09-26T02:41:25.118Z,31.3
2018-09-26T02:42:15.111Z,31.3
2018-09-26T02:43:04.648Z,31.3
2018-09-26T02:43:55.900Z,31.3
2018-09-26T02:44:45.873Z,31.3
2018-09-26T02:45:35.980Z,31.3
2018-09-26T02:46:26.289Z,31.3
2018-09-26T02:47:15.806Z,31.3
2018-09-26T02:48:06.457Z,31.3
2018-09-26T02:48:56.481Z,31.3
2018-09-26T02:49:46.041Z,31.3
2018-09-26T02:50:36.021Z,31.3
2018-09-26T02:51:26.072Z,31.3
2018-09-26T02:52:16.148Z,31.3
2018-09-26T02:53:06.778Z,31.3
2018-09-26T02:53:56.878Z,31.3
2018-09-26T02:54:45.792Z,31.3
2018-09-26T02:55:36.771Z,31.3
2018-09-26T02:56:26.198Z,31.3
2018-09-26T02:57:17.122Z,31.3
2018-09-26T02:58:06.398Z,31.3
2018-09-26T02:58:56.364Z,31.3
2018-09-26T02:59:47.062Z,31.3
2018-09-26T03:00:37.117Z,31.3
2018-09-26T03:01:26.548Z,31.3
2018-09-26T03:02:17.224Z,31.3
2018-09-26T03:03:06.945Z,31.3
2018-09-26T03:03:58.217Z,31.3
2018-09-26T03:04:47.362Z,31.3
2018-09-26T03:05:37.475Z,31.3
2018-09-26T03:06:26.972Z,31.3
2018-09-26T03:07:17.000Z,31.3
2018-09-26T03:08:07.052Z,31.3
2018-09-26T03:08:57.417Z,31.3
2018-09-26T03:09:47.714Z,31.2
2018-09-26T03:10:37.294Z,31.2
2018-09-26T03:11:27.316Z,31.2
2018-09-26T03:12:17.056Z,31.3
2018-09-26T03:13:07.447Z,31.3
2018-09-26T03:13:58.834Z,31.3
2018-09-26T03:14:48.157Z,31.3
2018-09-26T03:15:38.559Z,31.4
2018-09-26T03:16:27.403Z,31.4
2018-09-26T03:17:17.729Z,31.4
2018-09-26T03:18:08.051Z,31.4
2018-09-26T03:18:58.752Z,31.5
2018-09-26T03:19:48.544Z,31.5
2018-09-26T03:20:38.571Z,31.5
2018-09-26T03:21:28.580Z,31.5
2018-09-26T03:22:18.953Z,31.5
2018-09-26T03:23:08.145Z,31.5
2018-09-26T03:23:58.767Z,31.4
2018-09-26T03:24:49.272Z,31.4
2018-09-26T03:25:39.184Z,31.4
2018-09-26T03:26:28.682Z,31.4
2018-09-26T03:27:19.008Z,31.3
2018-09-26T03:28:09.363Z,31.3
2018-09-26T03:28:58.413Z,31.3
2018-09-26T03:29:48.723Z,31.3
2018-09-26T03:30:38.627Z,31.3
2018-09-26T03:31:28.302Z,31.2
2018-09-26T03:32:18.448Z,31.2
2018-09-26T03:33:08.418Z,31.2
2018-09-26T03:33:58.983Z,31.2
2018-09-26T03:34:48.810Z,31.1
2018-09-26T03:35:39.598Z,31.1
2018-09-26T03:36:29.967Z,31.1
2018-09-26T03:37:20.053Z,31.1
2018-09-26T03:38:09.546Z,31.1
2018-09-26T03:38:59.907Z,31.1
2018-09-26T03:39:49.392Z,31.1
2018-09-26T03:40:40.015Z,31.1
2018-09-26T03:41:30.339Z,31.1
2018-09-26T03:42:19.860Z,31
2018-09-26T03:43:09.931Z,31
2018-09-26T03:44:00.541Z,31
2018-09-26T03:44:50.027Z,31
2018-09-26T03:45:40.089Z,31
2018-09-26T03:46:30.783Z,31
2018-09-26T03:47:20.832Z,31
2018-09-26T03:48:10.832Z,30.9
2018-09-26T03:49:00.317Z,30.9
2018-09-26T03:49:50.149Z,30.9
2018-09-26T03:50:41.286Z,30.9
2018-09-26T03:51:30.769Z,30.9
2018-09-26T03:52:20.630Z,30.9
2018-09-26T03:53:10.943Z,30.9
2018-09-26T03:54:00.698Z,30.9
2018-09-26T03:54:50.456Z,30.9
2018-09-26T03:55:41.301Z,30.9
2018-09-26T03:56:31.250Z,30.9
2018-09-26T03:57:21.266Z,30.9
2018-09-26T03:58:11.273Z,30.9
2018-09-26T03:59:01.371Z,30.9
2018-09-26T03:59:51.091Z,30.9
2018-09-26T04:00:40.852Z,30.9
2018-09-26T04:01:32.078Z,30.8
2018-09-26T04:02:21.641Z,30.8
2018-09-26T04:03:11.410Z,30.8
2018-09-26T04:04:02.071Z,30.8
2018-09-26T04:04:51.985Z,30.8
2018-09-26T04:05:42.392Z,30.8
2018-09-26T04:06:31.420Z,30.8
2018-09-26T04:07:21.946Z,30.8
2018-09-26T04:08:11.718Z,30.8
2018-09-26T04:09:02.180Z,30.8
2018-09-26T04:09:52.167Z,30.8
2018-09-26T04:10:41.922Z,30.8
2018-09-26T04:11:31.998Z,30.8
2018-09-26T04:12:22.313Z,30.8
2018-09-26T04:13:13.322Z,30.8
2018-09-26T04:14:02.753Z,30.8
2018-09-26T04:14:52.265Z,30.8
2018-09-26T04:15:43.392Z,30.8
2018-09-26T04:16:32.671Z,30.8
2018-09-26T04:17:22.419Z,30.7
2018-09-26T04:18:12.517Z,30.7
2018-09-26T04:19:02.813Z,30.7
2018-09-26T04:19:52.945Z,30.7
2018-09-26T04:20:42.738Z,30.7
2018-09-26T04:21:32.157Z,30.7
2018-09-26T04:22:23.439Z,30.7
2018-09-26T04:23:12.813Z,30.7
2018-09-26T04:24:02.674Z,30.7
2018-09-26T04:24:52.415Z,30.7
2018-09-26T04:25:43.565Z,30.6
2018-09-26T04:26:34.733Z,30.7
2018-09-26T04:27:24.880Z,30.6
2018-09-26T04:28:13.286Z,30.6
2018-09-26T04:29:03.654Z,30.6
2018-09-26T04:29:54.239Z,30.6
2018-09-26T04:30:44.071Z,30.6
2018-09-26T04:31:34.312Z,30.6
2018-09-26T04:32:23.596Z,30.6
2018-09-26T04:33:18.242Z,30.6
2018-09-26T04:34:04.717Z,30.6
2018-09-26T04:34:54.004Z,30.6
2018-09-26T04:35:44.349Z,30.6
2018-09-26T04:36:34.630Z,30.6
2018-09-26T04:37:24.478Z,30.6
2018-09-26T04:38:13.398Z,30.6
2018-09-26T04:39:03.821Z,30.6
2018-09-26T04:39:54.330Z,30.6
2018-09-26T04:40:43.555Z,30.6
2018-09-26T04:41:34.751Z,30.6
2018-09-26T04:42:24.246Z,30.6
2018-09-26T04:43:15.457Z,30.6
2018-09-26T04:44:04.091Z,30.6
2018-09-26T04:44:54.740Z,30.6
2018-09-26T04:45:44.206Z,30.6
2018-09-26T04:46:35.131Z,30.6
2018-09-26T04:47:24.930Z,30.6
2018-09-26T04:48:15.237Z,30.6
2018-09-26T04:49:05.061Z,30.6
2018-09-26T04:49:55.406Z,30.5
2018-09-26T04:50:45.255Z,30.5
2018-09-26T04:51:34.906Z,30.5
2018-09-26T04:52:24.956Z,30.5
2018-09-26T04:53:15.820Z,30.5
2018-09-26T04:54:05.742Z,30.5
2018-09-26T04:54:55.455Z,30.5
2018-09-26T04:55:45.759Z,30.5
2018-09-26T04:56:35.583Z,30.5
2018-09-26T04:57:26.138Z,30.5
2018-09-26T04:58:16.596Z,30.5
2018-09-26T04:59:05.513Z,30.4
2018-09-26T04:59:54.943Z,30.4
2018-09-26T05:00:45.692Z,30.4
2018-09-26T05:01:35.931Z,30.4
2018-09-26T05:02:25.517Z,30.4
2018-09-26T05:03:15.285Z,30.4
2018-09-26T05:04:05.607Z,30.4
2018-09-26T05:04:55.196Z,30.4
2018-09-26T05:05:45.824Z,30.4
2018-09-26T05:06:35.238Z,30.4
2018-09-26T05:07:26.400Z,30.4
2018-09-26T05:24:18.597Z,29.8
2018-09-26T05:25:08.174Z,29.8
2018-09-26T05:25:57.776Z,29.8
2018-09-26T05:26:47.771Z,29.6
2018-09-26T05:27:38.108Z,29.4
2018-09-26T05:28:28.207Z,29.3
2018-09-26T05:29:18.361Z,29.2
2018-09-26T05:30:07.703Z,29.1
2018-09-26T05:30:58.086Z,29
2018-09-26T05:31:48.403Z,28.9
2018-09-26T05:32:38.231Z,28.9
2018-09-26T05:33:28.026Z,28.8
2018-09-26T05:34:18.626Z,28.7
2018-09-26T05:35:09.186Z,28.7
2018-09-26T05:35:58.353Z,28.7
2018-09-26T05:36:48.800Z,28.7
2018-09-26T05:37:39.388Z,28.8
2018-09-26T05:38:28.623Z,28.8
2018-09-26T05:39:19.195Z,28.8
2018-09-26T05:40:09.036Z,28.8
2018-09-26T05:40:58.435Z,28.8
2018-09-26T05:41:50.289Z,28.8
2018-09-26T05:42:39.417Z,28.8
2018-09-26T05:43:29.527Z,28.8
2018-09-26T05:44:18.750Z,28.9
2018-09-26T05:45:09.960Z,28.9
2018-09-26T05:45:59.996Z,28.9
2018-09-26T05:46:50.230Z,28.9
2018-09-26T05:47:39.892Z,28.9
2018-09-26T05:48:29.071Z,28.9
2018-09-26T05:49:20.285Z,28.9
2018-09-26T05:50:09.400Z,28.9
2018-09-26T05:51:00.435Z,28.9
2018-09-26T05:51:49.312Z,28.9
2018-09-26T05:52:40.480Z,28.9
2018-09-26T05:53:30.909Z,28.9
2018-09-26T05:54:20.049Z,28.5
2018-09-26T05:55:10.399Z,21
2018-09-26T05:56:00.382Z,25.7
2018-09-26T05:56:50.212Z,31.6
2018-09-26T05:57:40.044Z,33.2
2018-09-26T05:58:29.517Z,30.1
2018-09-26T05:59:21.046Z,26.5
2018-09-26T06:00:11.292Z,24.9
2018-09-26T06:01:01.991Z,24.3
2018-09-26T06:01:51.801Z,23.9
2018-09-26T06:02:40.992Z,23.9
2018-09-26T06:03:30.428Z,23.9
2018-09-26T06:04:21.025Z,24
2018-09-26T06:05:10.934Z,24.1
2018-09-26T06:06:01.216Z,24.2
2018-09-26T06:06:51.039Z,24.3
2018-09-26T06:07:40.772Z,24.4
2018-09-26T06:08:30.588Z,24.6
2018-09-26T06:09:21.439Z,24.8
2018-09-26T06:10:11.479Z,24.9
2018-09-26T06:11:01.583Z,24.6
2018-09-26T06:11:51.055Z,24.1
2018-09-26T06:12:42.126Z,31.6
2018-09-26T06:13:31.666Z,36.1
2018-09-26T06:14:22.066Z,37.1
2018-09-26T06:15:12.797Z,35.9
2018-09-26T06:16:02.451Z,33.9
2018-09-26T06:16:52.484Z,32.4
2018-09-26T06:17:41.843Z,31.6
2018-09-26T06:18:32.398Z,31.8
2018-09-26T06:19:21.856Z,32.4
2018-09-26T06:20:11.408Z,33.1
2018-09-26T06:21:01.138Z,33.6
2018-09-26T06:21:52.848Z,33.8
2018-09-26T06:22:42.411Z,33.7
2018-09-26T06:23:32.152Z,33.6
2018-09-26T06:24:22.528Z,33.6
2018-09-26T06:25:12.379Z,33.7
2018-09-26T06:26:02.453Z,33.9
2018-09-26T06:26:51.988Z,34.2
2018-09-26T06:27:43.088Z,34.4
2018-09-26T06:28:31.718Z,34.6
2018-09-26T06:29:22.870Z,34.8
2018-09-26T06:30:12.835Z,34.8
2018-09-26T06:31:02.802Z,34.9
2018-09-26T06:31:52.514Z,35
2018-09-26T06:32:43.372Z,35.1
2018-09-26T06:33:33.454Z,35.4
2018-09-26T06:34:22.976Z,35.6
2018-09-26T06:35:13.212Z,35.8
2018-09-26T06:36:03.427Z,35.9
2018-09-26T06:36:53.120Z,36.1
2018-09-26T06:37:43.256Z,36.3
2018-09-26T06:38:33.247Z,36.4
2018-09-26T06:39:23.938Z,36.6
2018-09-26T06:40:13.691Z,36.8
2018-09-26T06:41:02.899Z,37
2018-09-26T06:41:53.852Z,37.1
2018-09-26T06:42:43.616Z,37.3
2018-09-26T06:43:33.683Z,37.5
2018-09-26T06:44:23.716Z,37.8
2018-09-26T06:45:14.049Z,37.9
2018-09-26T06:46:03.793Z,38.1
2018-09-26T06:46:54.458Z,38.3
2018-09-26T06:47:44.399Z,38.4
2018-09-26T06:48:33.207Z,38.6
2018-09-26T06:49:24.338Z,38.8
2018-09-26T06:50:14.473Z,39
2018-09-26T06:51:04.738Z,39.1
2018-09-26T06:51:54.252Z,39.4
2018-09-26T06:52:44.925Z,39.5
2018-09-26T06:53:34.956Z,39.8
2018-09-26T06:54:24.747Z,39.9
2018-09-26T06:55:15.008Z,40.1
2018-09-26T06:56:05.071Z,40.3
2018-09-26T06:56:54.381Z,40.5
2018-09-26T06:57:44.489Z,40.7
2018-09-26T06:58:35.002Z,40.9
2018-09-26T06:59:25.386Z,41.1
2018-09-26T07:00:15.928Z,41.3
2018-09-26T07:01:05.173Z,41.5
2018-09-26T07:01:54.987Z,41.7
2018-09-26T07:02:45.103Z,41.9
2018-09-26T07:03:34.815Z,42
2018-09-26T07:04:25.422Z,42.3
2018-09-26T07:05:15.571Z,42.4
2018-09-26T07:06:05.603Z,42.6
2018-09-26T07:06:55.948Z,42.8
2018-09-26T07:07:45.657Z,42.9
2018-09-26T07:08:35.203Z,43.1
2018-09-26T07:09:25.508Z,43.2
2018-09-26T07:10:15.863Z,43.4
2018-09-26T07:11:06.240Z,43.6
2018-09-26T07:11:55.427Z,43.7
2018-09-26T07:12:46.010Z,43.9
2018-09-26T07:13:36.195Z,44
2018-09-26T07:14:25.930Z,44.2
2018-09-26T07:15:16.570Z,44.4
2018-09-26T07:16:06.565Z,44.5
2018-09-26T07:16:55.541Z,44.7
2018-09-26T07:17:46.982Z,44.9
2018-09-26T07:18:36.781Z,45.1
2018-09-26T07:19:25.975Z,45.2
2018-09-26T07:20:16.355Z,45.4
2018-09-26T07:21:06.722Z,45.6
2018-09-26T07:21:56.189Z,45.7
2018-09-26T07:22:46.818Z,45.9
2018-09-26T07:23:36.610Z,46
2018-09-26T07:24:26.330Z,46.1
2018-09-26T07:25:16.977Z,46.3
2018-09-26T07:26:06.501Z,46.5
2018-09-26T07:26:56.856Z,46.7
2018-09-26T07:27:47.454Z,46.8
2018-09-26T07:28:36.996Z,47
2018-09-26T07:29:26.963Z,47.2
2018-09-26T07:30:17.574Z,47.4
2018-09-26T07:31:07.684Z,47.6
2018-09-26T07:31:57.507Z,47.8
2018-09-26T07:32:47.600Z,48
2018-09-26T07:33:37.556Z,48.2
2018-09-26T07:34:27.931Z,48.4
2018-09-26T07:35:17.452Z,48.6
2018-09-26T07:36:07.537Z,48.8
2018-09-26T07:36:58.098Z,48.9
2018-09-26T07:37:47.603Z,49.1
2018-09-26T07:38:38.756Z,49.3
2018-09-26T07:39:27.974Z,49.4
2018-09-26T07:40:17.856Z,49.6
2018-09-26T07:41:07.583Z,49.8
2018-09-26T07:41:58.217Z,49.9
2018-09-26T07:42:46.851Z,50.1
2018-09-26T07:43:37.818Z,50.2
2018-09-26T07:44:27.461Z,50.4
2018-09-26T07:45:17.166Z,50.6
2018-09-26T07:46:06.739Z,50.8
2018-09-26T07:46:58.101Z,51
2018-09-26T07:47:48.048Z,51.2
2018-09-26T07:48:37.226Z,51.4
2018-09-26T07:49:27.465Z,51.6
2018-09-26T07:50:17.182Z,51.8
2018-09-26T07:51:57.737Z,52.1
2018-09-26T07:52:47.654Z,52.2
2018-09-26T07:53:37.629Z,51.9
2018-09-26T07:54:27.878Z,51.3
2018-09-26T07:55:18.596Z,51.1
2018-09-26T07:56:08.193Z,51.4
2018-09-26T07:56:57.925Z,52.1
2018-09-26T07:57:48.857Z,52.8
2018-09-26T07:58:38.693Z,53.3
2018-09-26T07:59:29.562Z,53.6
2018-09-26T08:00:19.060Z,53.6
2018-09-26T08:01:09.646Z,53.7
2018-09-26T08:01:59.148Z,53.8
2018-09-26T08:02:48.992Z,54
2018-09-26T08:03:39.237Z,54.3
2018-09-26T08:04:30.222Z,54.4
2018-09-26T08:05:19.359Z,54.7
2018-09-26T08:06:10.433Z,54.9
2018-09-26T08:06:59.472Z,55
2018-09-26T08:07:49.382Z,55.1
2018-09-26T08:08:39.142Z,55.3
2018-09-26T08:09:28.623Z,55.4
2018-09-26T08:10:19.800Z,55.6
2018-09-26T08:11:10.052Z,55.8
2018-09-26T08:12:00.870Z,55.9
2018-09-26T08:12:50.468Z,56.1
2018-09-26T08:13:40.558Z,56.3
2018-09-26T08:14:31.131Z,56.4
2018-09-26T08:15:19.894Z,56.6
2018-09-26T08:16:10.199Z,56.8
2018-09-26T08:17:00.794Z,56.9
2018-09-26T08:17:50.536Z,57.1
2018-09-26T08:18:42.571Z,57.3
2018-09-26T08:19:30.643Z,57.4
2018-09-26T08:20:21.061Z,57.6
2018-09-26T08:22:01.008Z,57.9
2018-09-26T08:22:50.764Z,58.1
2018-09-26T08:23:41.569Z,58.2
2018-09-26T08:24:31.366Z,58.3
2018-09-26T08:25:20.323Z,58.4
2018-09-26T08:27:01.804Z,58.8
2018-09-26T08:27:51.309Z,59
2018-09-26T08:28:41.360Z,59.2
2018-09-26T08:29:31.191Z,59.4
2018-09-26T08:30:21.543Z,59.7
2018-09-26T08:31:11.600Z,59.9
2018-09-26T08:32:01.903Z,60.3
2018-09-26T08:32:51.678Z,60.5
2018-09-26T08:33:41.755Z,60.8
2018-09-26T08:34:31.868Z,60.9
2018-09-26T08:35:22.445Z,61.1
2018-09-26T08:36:11.990Z,61.2
2018-09-26T08:37:02.510Z,60.8
2018-09-26T08:37:51.549Z,59.4
2018-09-26T08:38:41.920Z,57.8
2018-09-26T08:39:32.715Z,56.4
2018-09-26T08:40:22.515Z,55.3
2018-09-26T08:41:12.865Z,54.4
2018-09-26T08:42:02.367Z,53.9
2018-09-26T08:42:51.684Z,53.4
2018-09-26T08:43:42.197Z,52.9
2018-09-26T08:44:32.569Z,52.4
2018-09-26T08:45:23.170Z,52.1
2018-09-26T08:46:12.880Z,51.7
2018-09-26T08:47:02.994Z,51.3
2018-09-26T08:47:52.779Z,51.1
2018-09-26T08:48:43.405Z,50.8
2018-09-26T08:49:32.978Z,50.6
2018-09-26T08:50:23.351Z,50.4
2018-09-26T08:51:12.895Z,50.7
2018-09-26T08:52:02.609Z,51.8
2018-09-26T08:52:53.466Z,53.6
2018-09-26T08:53:44.334Z,55.2
2018-09-26T08:54:33.961Z,55.3
2018-09-26T08:55:23.586Z,54.3
2018-09-26T08:56:14.034Z,52.9
2018-09-26T08:57:02.986Z,52.1
2018-09-26T08:57:53.529Z,51.8
2018-09-26T08:58:43.829Z,51.7
2018-09-26T08:59:34.340Z,51.8
2018-09-26T09:00:23.854Z,51.7
2018-09-26T09:01:13.269Z,51.4
2018-09-26T09:02:03.516Z,51
2018-09-26T09:02:53.420Z,50.6
2018-09-26T09:03:44.200Z,50.4
2018-09-26T09:04:34.533Z,51.1
2018-09-26T09:05:24.577Z,52.7
2018-09-26T09:06:15.081Z,54.6
2018-09-26T09:07:03.922Z,56.3
2018-09-26T09:07:54.824Z,57.1
2018-09-26T09:08:44.328Z,57.1
2018-09-26T09:09:34.980Z,56.9
2018-09-26T09:10:24.761Z,57.3
2018-09-26T09:11:14.828Z,58
2018-09-26T09:12:04.269Z,58.7
2018-09-26T09:12:54.644Z,58.3
2018-09-26T09:13:44.929Z,57.8
2018-09-26T09:14:38.105Z,57.9
2018-09-26T09:15:25.754Z,58.7
2018-09-26T09:16:14.633Z,59.6
2018-09-26T09:17:04.753Z,60.4
2018-09-26T09:17:55.293Z,60.9
2018-09-26T09:18:45.132Z,61.3
2018-09-26T09:19:35.507Z,61.4
2018-09-26T09:20:25.912Z,61.4
2018-09-26T09:21:15.207Z,61.6
2018-09-26T09:22:05.282Z,61.8
2018-09-26T09:38:53.318Z,62.3
2018-09-26T09:39:43.021Z,60.4
2018-09-26T09:40:32.753Z,59
2018-09-26T09:41:22.823Z,59.1
2018-09-26T09:42:12.498Z,60
2018-09-26T09:43:02.949Z,61.3
2018-09-26T09:43:54.196Z,62.4
2018-09-26T09:44:43.655Z,63.1
2018-09-26T09:45:33.093Z,63.3
2018-09-26T09:46:23.196Z,63.4
2018-09-26T09:47:13.014Z,63.6
2018-09-26T09:48:03.868Z,63.8
2018-09-26T09:48:54.118Z,64.2
2018-09-26T09:49:43.351Z,64.5
2018-09-26T09:50:33.491Z,64.7
2018-09-26T09:51:24.074Z,64.9
2018-09-26T09:52:13.579Z,65
2018-09-26T09:53:04.271Z,65.1
2018-09-26T09:53:53.998Z,65.1
2018-09-26T09:54:43.741Z,65.3
2018-09-26T09:55:34.117Z,65.4
2018-09-26T09:56:25.295Z,65.5
2018-09-26T09:57:13.956Z,65.6
2018-09-26T09:58:04.387Z,65.8
2018-09-26T09:58:54.073Z,65.9
2018-09-26T09:59:44.138Z,66
2018-09-26T10:00:33.658Z,66.1
2018-09-26T10:01:24.897Z,66.2
2018-09-26T10:02:15.535Z,66.3
2018-09-26T10:03:06.521Z,66.4
2018-09-26T10:03:55.756Z,66.5
2018-09-26T10:04:45.063Z,66.6
2018-09-26T10:05:34.293Z,65.9
2018-09-26T10:06:24.623Z,64.1
2018-09-26T10:07:15.243Z,62.2
2018-09-26T10:08:04.871Z,61
2018-09-26T10:08:55.285Z,60.4
2018-09-26T10:09:45.162Z,60.8
2018-09-26T10:10:34.942Z,61.9
2018-09-26T10:11:25.292Z,63.3
2018-09-26T10:12:15.329Z,64.4
2018-09-26T10:13:05.417Z,65.1
2018-09-26T10:13:54.934Z,65.3
2018-09-26T10:14:45.777Z,65.4
2018-09-26T10:15:36.232Z,65.6
2018-09-26T10:16:25.627Z,65.8
2018-09-26T10:17:15.172Z,66.1
2018-09-26T10:18:05.770Z,66.5
2018-09-26T10:18:55.572Z,66.8
2018-09-26T10:19:45.679Z,67.1
2018-09-26T10:20:35.709Z,67.3
2018-09-26T10:21:26.124Z,66.6
2018-09-26T10:22:16.121Z,65.5
2018-09-26T10:23:05.576Z,65.3
2018-09-26T10:23:56.221Z,65.8
2018-09-26T10:24:46.594Z,65.4
2018-09-26T10:25:36.609Z,64.9
2018-09-26T10:26:27.820Z,64.4
2018-09-26T10:27:16.746Z,63.4
2018-09-26T10:28:06.246Z,62.2
2018-09-26T10:28:56.585Z,61.1
2018-09-26T10:29:46.714Z,60.3
2018-09-26T10:30:36.251Z,59.6
2018-09-26T10:31:27.067Z,59.1
2018-09-26T10:32:17.011Z,58.7
2018-09-26T10:33:07.211Z,58.4
2018-09-26T10:33:57.256Z,58.1
2018-09-26T10:34:46.222Z,57.8
2018-09-26T10:35:37.419Z,57.9
2018-09-26T10:36:27.475Z,59
2018-09-26T10:37:17.276Z,60.2
2018-09-26T10:38:07.467Z,60.3
2018-09-26T10:38:57.839Z,59.6
2018-09-26T10:39:47.188Z,59.1
2018-09-26T10:40:37.481Z,59.4
2018-09-26T10:41:27.543Z,60.8
2018-09-26T10:42:17.560Z,62.3
2018-09-26T10:43:07.335Z,63.4
2018-09-26T10:43:57.703Z,64.4
2018-09-26T10:44:47.996Z,65.1
2018-09-26T10:45:37.838Z,64.9
2018-09-26T10:46:28.362Z,63.5
2018-09-26T10:47:17.663Z,62.8
2018-09-26T10:48:08.268Z,63.1
2018-09-26T10:48:58.076Z,63.4
2018-09-26T10:49:47.805Z,62.9
2018-09-26T10:50:38.195Z,61.8
2018-09-26T10:51:28.507Z,60.6
2018-09-26T10:52:18.545Z,59.8
2018-09-26T10:53:07.914Z,60
2018-09-26T10:53:57.840Z,61.1
2018-09-26T10:54:48.462Z,62.8
2018-09-26T10:55:39.059Z,64.4
2018-09-26T10:56:29.212Z,65.4
2018-09-26T10:57:18.434Z,65.8
2018-09-26T10:58:08.939Z,66
2018-09-26T10:58:58.732Z,66.2
2018-09-26T10:59:48.538Z,66.2
2018-09-26T11:00:39.396Z,65.6
2018-09-26T11:01:29.267Z,64.5
2018-09-26T11:02:20.501Z,64.1
2018-09-26T11:03:08.522Z,63.8
2018-09-26T11:03:58.823Z,63.3
2018-09-26T11:04:49.496Z,62.5
2018-09-26T11:05:39.324Z,61.9
2018-09-26T11:06:29.630Z,61.4
2018-09-26T11:07:18.799Z,60.9
2018-09-26T11:08:09.848Z,60.9
2018-09-26T11:08:59.258Z,60.8
2018-09-26T11:09:49.319Z,60.6
2018-09-26T11:10:39.426Z,60.1
2018-09-26T11:11:29.659Z,59.5
2018-09-26T11:12:20.006Z,59.6
2018-09-26T11:13:10.133Z,60.6
2018-09-26T11:13:59.003Z,62
2018-09-26T11:14:48.531Z,62.4
2018-09-26T11:15:40.391Z,61.7
2018-09-26T11:16:30.924Z,60.4
2018-09-26T11:17:20.086Z,59.8
2018-09-26T11:18:10.554Z,59.8
2018-09-26T11:19:01.265Z,59.9
2018-09-26T11:19:50.553Z,59.6
2018-09-26T11:20:41.278Z,59.2
2018-09-26T11:22:21.286Z,58
2018-09-26T11:23:10.860Z,57.6
2018-09-26T11:24:00.581Z,57.3
2018-09-26T11:24:50.670Z,57.1
2018-09-26T11:25:40.738Z,56.9
2018-09-26T11:26:31.496Z,56.7
2018-09-26T11:27:20.875Z,56.8
2018-09-26T11:28:10.684Z,57.6
2018-09-26T11:29:01.013Z,59
2018-09-26T11:29:51.072Z,60.5
2018-09-26T11:30:41.120Z,61.9
2018-09-26T11:31:31.477Z,62.3
2018-09-26T11:32:22.817Z,62
2018-09-26T11:33:11.991Z,61.8
2018-09-26T11:34:01.644Z,61.1
2018-09-26T11:34:51.410Z,60.1
2018-09-26T11:35:40.922Z,59.2
2018-09-26T11:36:31.570Z,58.4
2018-09-26T11:37:21.595Z,58
2018-09-26T11:38:12.617Z,58.1
2018-09-26T11:39:02.265Z,58.9
2018-09-26T11:39:52.127Z,60.1
2018-09-26T11:40:42.106Z,60.4
2018-09-26T11:41:31.901Z,59.8
2018-09-26T11:42:22.057Z,58.8
2018-09-26T11:43:12.202Z,57.9
2018-09-26T11:44:02.482Z,57.3
2018-09-26T11:44:53.814Z,57.1
2018-09-26T11:45:42.502Z,56.9
2018-09-26T11:46:32.511Z,56.7
2018-09-26T11:47:20.722Z,56.8
2018-09-26T11:48:11.877Z,57.4
2018-09-26T11:49:02.468Z,57.6
2018-09-26T11:49:52.286Z,57.4
2018-09-26T11:50:42.455Z,56.9
2018-09-26T11:51:32.361Z,56.4
2018-09-26T11:52:22.572Z,56
2018-09-26T11:53:12.737Z,55.8
2018-09-26T11:54:03.362Z,55.7
2018-09-26T11:54:52.401Z,55.4
2018-09-26T11:55:42.230Z,55.2
2018-09-26T11:56:33.487Z,54.9
2018-09-26T11:57:22.581Z,54.7
2018-09-26T11:58:13.535Z,54.7
2018-09-26T11:59:02.962Z,54.8
2018-09-26T11:59:52.914Z,54.9
2018-09-26T12:00:43.011Z,55.2
2018-09-26T12:01:33.463Z,56
2018-09-26T12:02:24.562Z,57.1